Time;durP1;ratioP1;P1;durP2;ratioP2;P2;SDS_P1;SDS_P2;PMS_P1;PMS_P2;Temp;Humidity;BMP_temperature;BMP_pressure;BME280_temperature;BME280_humidity;BME280_pressure;Samples;Min_cycle;Max_cycle;Signal;HPM_P1;HPM_P2
2023/07/07 00:02:10;;;;;;;3.90;0.98;;;13.40;99.90;;;;;;5023739;28;20054;-81
2023/07/07 00:04:36;;;;;;;1.73;0.70;;;13.40;99.90;;;;;;5021882;28;20113;-81
2023/07/07 00:07:01;;;;;;;1.88;0.80;;;13.40;99.90;;;;;;5009885;28;20060;-81
2023/07/07 00:09:27;;;;;;;1.80;0.98;;;13.30;99.90;;;;;;5021707;28;20044;-81
2023/07/07 00:11:53;;;;;;;1.60;0.73;;;13.30;99.90;;;;;;5023213;28;20029;-82
2023/07/07 00:14:20;;;;;;;1.10;0.60;;;13.30;99.90;;;;;;5022629;28;20025;-81
2023/07/07 00:16:46;;;;;;;2.33;1.00;;;13.30;99.90;;;;;;5024451;28;20112;-81
2023/07/07 00:19:11;;;;;;;2.50;0.77;;;13.30;99.90;;;;;;5023168;28;20029;-80
2023/07/07 00:21:37;;;;;;;2.08;1.10;;;13.30;99.90;;;;;;5022064;28;20030;-81
2023/07/07 00:24:05;;;;;;;1.30;0.68;;;13.20;99.90;;;;;;5025767;28;20031;-81
2023/07/07 00:26:32;;;;;;;1.60;0.70;;;13.20;99.90;;;;;;5023365;28;20021;-80
2023/07/07 00:28:58;;;;;;;1.95;0.65;;;13.10;99.90;;;;;;5006779;28;20394;-81
2023/07/07 00:31:25;;;;;;;2.33;0.70;;;13.10;99.90;;;;;;5009972;28;20724;-81
2023/07/07 00:33:50;;;;;;;2.65;0.77;;;13.10;99.90;;;;;;5022070;28;20030;-80
2023/07/07 00:36:17;;;;;;;1.65;0.70;;;13.10;99.90;;;;;;5025863;28;20205;-81
2023/07/07 00:38:43;;;;;;;1.63;0.73;;;13.00;99.90;;;;;;5020226;28;20030;-81
2023/07/07 00:41:09;;;;;;;1.88;0.90;;;13.00;99.90;;;;;;5018849;28;20026;-81
2023/07/07 00:43:37;;;;;;;1.80;0.88;;;12.90;99.90;;;;;;5007624;28;20022;-81
2023/07/07 00:46:04;;;;;;;2.00;0.70;;;12.90;99.90;;;;;;5036140;28;20030;-82
2023/07/07 00:48:44;;;;;;;1.67;0.70;;;12.90;99.90;;;;;;5022434;28;20112;-81
2023/07/07 00:51:19;;;;;;;1.95;0.90;;;12.90;99.90;;;;;;5021323;28;20471;-81
2023/07/07 00:53:47;;;;;;;2.03;0.90;;;12.80;99.90;;;;;;5010564;28;20033;-81
2023/07/07 00:56:20;;;;;;;1.40;0.70;;;12.80;99.90;;;;;;5008023;28;20493;-81
2023/07/07 00:58:46;;;;;;;1.88;0.60;;;12.90;99.90;;;;;;5022749;28;20033;-81
2023/07/07 01:01:17;;;;;;;1.90;0.85;;;12.80;99.90;;;;;;5021613;28;20410;-80
2023/07/07 01:03:51;;;;;;;1.75;0.93;;;12.80;99.90;;;;;;5004293;28;20028;-81
2023/07/07 01:06:29;;;;;;;1.80;0.95;;;12.80;99.90;;;;;;5021571;28;20102;-81
2023/07/07 01:09:00;;;;;;;1.85;1.20;;;12.70;99.90;;;;;;5002839;28;20038;-81
2023/07/07 01:11:27;;;;;;;1.63;0.80;;;12.70;99.90;;;;;;5004527;28;20056;-81
2023/07/07 01:13:54;;;;;;;2.42;1.08;;;12.60;99.90;;;;;;5005465;28;20108;-81
2023/07/07 01:16:31;;;;;;;2.03;0.75;;;12.60;99.90;;;;;;5026477;28;20104;-81
2023/07/07 01:19:44;;;;;;;1.58;0.85;;;12.60;99.90;;;;;;5009274;28;20497;-81
2023/07/07 01:22:33;;;;;;;2.97;0.80;;;12.60;99.90;;;;;;5020398;28;20459;-81
2023/07/07 01:25:17;;;;;;;1.35;0.70;;;12.60;99.90;;;;;;5022353;28;20029;-81
2023/07/07 01:28:08;;;;;;;1.27;0.80;;;12.50;99.90;;;;;;5021545;28;20038;-80
2023/07/07 01:30:40;;;;;;;2.50;0.82;;;12.60;99.90;;;;;;5022942;28;20034;-81
2023/07/07 01:33:10;;;;;;;3.53;0.95;;;12.40;99.90;;;;;;5008642;28;20277;-81
2023/07/07 01:35:36;;;;;;;1.70;0.73;;;12.50;99.90;;;;;;5023939;28;20048;-82
2023/07/07 01:38:04;;;;;;;2.63;1.08;;;12.40;99.90;;;;;;5007342;28;20483;-81
2023/07/07 01:40:42;;;;;;;1.67;0.82;;;12.40;99.90;;;;;;5005078;28;20040;-81
2023/07/07 01:43:31;;;;;;;3.00;1.00;;;12.40;99.90;;;;;;5010817;28;20065;-81
2023/07/07 01:46:24;;;;;;;1.73;0.90;;;12.40;99.90;;;;;;5018456;28;20061;-81
2023/07/07 01:48:57;;;;;;;3.65;0.88;;;12.40;99.90;;;;;;5017631;28;20045;-81
2023/07/07 01:51:31;;;;;;;2.30;1.08;;;12.40;99.90;;;;;;5021190;28;20033;-82
2023/07/07 01:54:00;;;;;;;1.42;0.70;;;12.30;99.90;;;;;;5025599;28;20064;-81
2023/07/07 01:56:29;;;;;;;2.22;0.93;;;12.30;99.90;;;;;;5029762;28;20029;-81
2023/07/07 01:58:55;;;;;;;1.80;0.80;;;12.40;99.90;;;;;;5029501;28;20041;-82
2023/07/07 02:01:21;;;;;;;1.95;1.00;;;12.40;99.90;;;;;;5025751;28;20053;-82
2023/07/07 02:03:47;;;;;;;1.60;0.75;;;12.40;99.90;;;;;;5011315;28;20022;-82
2023/07/07 02:06:13;;;;;;;3.17;0.85;;;12.40;99.90;;;;;;5029219;28;20036;-81
2023/07/07 02:08:39;;;;;;;3.75;1.05;;;12.30;99.90;;;;;;5010753;28;20038;-81
2023/07/07 02:11:04;;;;;;;1.40;0.90;;;12.30;99.90;;;;;;5024254;28;20045;-81
2023/07/07 02:13:30;;;;;;;1.45;0.70;;;12.30;99.90;;;;;;5012650;28;20037;-81
2023/07/07 02:15:56;;;;;;;1.73;0.95;;;12.20;99.90;;;;;;5027453;28;20203;-81
2023/07/07 02:18:26;;;;;;;1.77;0.77;;;12.20;99.90;;;;;;5026138;28;20053;-81
2023/07/07 02:20:52;;;;;;;2.47;1.33;;;12.10;99.90;;;;;;5028201;28;20025;-81
2023/07/07 02:23:18;;;;;;;1.98;0.82;;;12.10;99.90;;;;;;5013092;28;20025;-81
2023/07/07 02:25:44;;;;;;;1.55;0.85;;;12.00;99.90;;;;;;5008344;28;20034;-81
2023/07/07 02:28:09;;;;;;;2.42;0.88;;;12.10;99.90;;;;;;5025912;28;20180;-82
2023/07/07 02:30:36;;;;;;;2.75;1.50;;;12.10;99.90;;;;;;5025375;28;20033;-81
2023/07/07 02:33:01;;;;;;;1.52;0.73;;;12.00;99.90;;;;;;5025733;28;20033;-82
2023/07/07 02:35:27;;;;;;;2.83;1.30;;;12.00;99.90;;;;;;5024084;28;20422;-82
2023/07/07 02:37:55;;;;;;;2.13;0.95;;;12.00;99.90;;;;;;5027932;28;20022;-81
2023/07/07 02:40:21;;;;;;;2.47;1.10;;;12.00;99.90;;;;;;5023051;28;20120;-81
2023/07/07 02:42:47;;;;;;;1.95;1.08;;;11.90;99.90;;;;;;5023565;28;20022;-81
2023/07/07 02:45:14;;;;;;;3.95;1.10;;;12.00;99.90;;;;;;5024966;28;20030;-81
2023/07/07 02:47:39;;;;;;;4.15;1.27;;;11.90;99.90;;;;;;5026089;28;20356;-81
2023/07/07 02:50:05;;;;;;;1.60;1.00;;;11.90;99.90;;;;;;5007271;28;20044;-82
2023/07/07 02:52:31;;;;;;;4.05;2.25;;;11.90;99.90;;;;;;5027720;28;20021;-82
2023/07/07 02:54:57;;;;;;;2.20;0.90;;;11.90;99.90;;;;;;5010041;28;20095;-81
2023/07/07 02:57:23;;;;;;;1.75;0.93;;;11.80;99.90;;;;;;5007538;28;20049;-81
2023/07/07 02:59:48;;;;;;;1.83;0.90;;;11.80;99.90;;;;;;5028919;28;20024;-81
2023/07/07 03:02:14;;;;;;;1.60;0.80;;;11.80;99.90;;;;;;5027779;28;20041;-81
2023/07/07 03:04:40;;;;;;;2.28;1.23;;;11.70;99.90;;;;;;5008230;28;20079;-81
2023/07/07 03:07:06;;;;;;;1.80;1.00;;;11.70;99.90;;;;;;5005152;28;20058;-81
2023/07/07 03:09:32;;;;;;;1.90;1.20;;;11.70;99.90;;;;;;5025270;28;20052;-81
2023/07/07 03:11:59;;;;;;;2.22;0.90;;;11.70;99.90;;;;;;5021808;28;20025;-82
2023/07/07 03:14:26;;;;;;;2.28;1.20;;;11.60;99.90;;;;;;5024497;28;20107;-80
2023/07/07 03:16:56;;;;;;;2.13;1.27;;;11.70;99.90;;;;;;5009525;28;20485;-82
2023/07/07 03:19:36;;;;;;;1.75;1.05;;;11.60;99.90;;;;;;5024482;28;20410;-81
2023/07/07 03:22:09;;;;;;;2.17;0.88;;;11.60;99.90;;;;;;5012416;28;20053;-81
2023/07/07 03:25:07;;;;;;;1.58;0.85;;;11.60;99.90;;;;;;5015014;28;20033;-81
2023/07/07 03:27:42;;;;;;;2.00;1.00;;;11.60;99.90;;;;;;5021828;28;20038;-82
2023/07/07 03:30:15;;;;;;;1.50;0.93;;;11.60;99.90;;;;;;5022306;28;20072;-81
2023/07/07 03:32:56;;;;;;;2.13;1.15;;;11.60;99.90;;;;;;5038750;28;20049;-82
2023/07/07 03:35:24;;;;;;;2.90;1.08;;;11.60;99.90;;;;;;5021359;28;20029;-82
2023/07/07 03:37:50;;;;;;;1.70;0.90;;;11.50;99.90;;;;;;5009893;28;20017;-81
2023/07/07 03:40:17;;;;;;;2.03;1.10;;;11.60;99.90;;;;;;5011118;28;20121;-81
2023/07/07 03:42:43;;;;;;;2.00;1.10;;;11.60;99.90;;;;;;5028782;28;20044;-81
2023/07/07 03:45:11;;;;;;;1.45;0.90;;;11.60;99.90;;;;;;5021143;28;20030;-81
2023/07/07 03:47:38;;;;;;;2.13;1.00;;;11.60;99.90;;;;;;5023325;28;20033;-82
2023/07/07 03:50:07;;;;;;;2.97;1.30;;;11.50;99.90;;;;;;5011533;28;20144;-82
2023/07/07 03:52:34;;;;;;;1.75;1.00;;;11.60;99.90;;;;;;5022068;28;20631;-81
2023/07/07 03:55:02;;;;;;;2.67;1.00;;;11.60;99.90;;;;;;5024088;28;20065;-81
2023/07/07 03:57:27;;;;;;;3.00;1.00;;;11.50;99.90;;;;;;5024434;28;20017;-81
2023/07/07 03:59:54;;;;;;;1.95;1.02;;;11.50;99.90;;;;;;5024278;28;20028;-81
2023/07/07 04:02:19;;;;;;;1.70;1.30;;;11.60;99.90;;;;;;5006156;28;20041;-80
2023/07/07 04:04:45;;;;;;;1.95;0.90;;;11.60;99.90;;;;;;5025947;28;20113;-81
2023/07/07 04:07:11;;;;;;;2.38;1.35;;;11.70;99.90;;;;;;5035906;28;20044;-82
2023/07/07 04:09:38;;;;;;;2.15;1.33;;;11.70;99.90;;;;;;5021022;28;20052;-82
2023/07/07 04:12:08;;;;;;;2.60;1.50;;;11.70;99.90;;;;;;5022897;28;20026;-82
2023/07/07 04:14:34;;;;;;;2.45;1.42;;;11.60;99.90;;;;;;5004793;28;20036;-82
2023/07/07 04:17:00;;;;;;;1.95;1.10;;;11.70;99.90;;;;;;5023813;28;20471;-82
2023/07/07 04:19:25;;;;;;;3.20;0.88;;;11.70;99.90;;;;;;5020923;28;20033;-82
2023/07/07 04:21:51;;;;;;;4.05;1.40;;;11.80;99.90;;;;;;5024596;28;20026;-82
2023/07/07 04:24:20;;;;;;;1.95;1.05;;;11.90;99.90;;;;;;5003500;28;20064;-81
2023/07/07 04:26:47;;;;;;;2.38;1.42;;;11.90;99.90;;;;;;5009528;28;20033;-82
2023/07/07 04:29:13;;;;;;;2.25;1.00;;;12.00;99.90;;;;;;5023285;28;20119;-82
2023/07/07 04:31:42;;;;;;;2.42;1.13;;;12.00;99.90;;;;;;5026182;28;20056;-82
2023/07/07 04:34:08;;;;;;;2.80;1.42;;;12.00;99.90;;;;;;5021359;28;20042;-82
2023/07/07 04:36:34;;;;;;;3.28;1.20;;;12.10;99.90;;;;;;5025396;28;20037;-82
2023/07/07 04:38:59;;;;;;;2.15;1.25;;;12.20;99.90;;;;;;5022669;28;20057;-82
2023/07/07 04:41:25;;;;;;;3.53;1.30;;;12.30;99.90;;;;;;5025829;28;20025;-82
2023/07/07 04:43:53;;;;;;;3.60;1.40;;;12.50;99.90;;;;;;5025950;28;20033;-82
2023/07/07 04:46:23;;;;;;;2.53;1.33;;;12.60;99.90;;;;;;5023275;28;20109;-81
2023/07/07 04:48:49;;;;;;;2.38;1.58;;;12.80;99.90;;;;;;5017979;28;20121;-81
2023/07/07 04:51:14;;;;;;;2.95;1.30;;;13.00;99.90;;;;;;5022625;28;20156;-82
2023/07/07 04:53:40;;;;;;;3.58;1.80;;;13.10;99.90;;;;;;5007634;28;20033;-82
2023/07/07 04:56:16;;;;;;;3.60;1.58;;;13.30;99.90;;;;;;5022108;28;20117;-82
2023/07/07 04:58:43;;;;;;;3.97;2.35;;;13.50;99.90;;;;;;5024131;28;20044;-82
2023/07/07 05:01:09;;;;;;;3.00;1.63;;;13.70;99.90;;;;;;5020326;28;20068;-82
2023/07/07 05:03:36;;;;;;;2.72;2.08;;;13.90;99.90;;;;;;5026540;28;20121;-82
2023/07/07 05:06:03;;;;;;;2.33;1.90;;;14.10;99.90;;;;;;5022656;28;20386;-82
2023/07/07 05:08:38;;;;;;;2.60;1.92;;;14.30;99.90;;;;;;5019976;28;20044;-82
2023/07/07 05:11:05;;;;;;;2.78;2.38;;;14.40;99.90;;;;;;5019384;28;20037;-82
2023/07/07 05:13:31;;;;;;;3.65;2.53;;;14.50;99.90;;;;;;5007213;28;20494;-82
2023/07/07 05:16:05;;;;;;;2.90;2.53;;;14.80;99.90;;;;;;5007271;28;20529;-83
2023/07/07 05:18:32;;;;;;;4.82;2.45;;;14.90;99.90;;;;;;5022423;28;20041;-82
2023/07/07 05:20:58;;;;;;;4.97;2.63;;;15.10;99.90;;;;;;5018818;28;20386;-83
2023/07/07 05:23:23;;;;;;;2.65;2.08;;;15.20;99.90;;;;;;5023454;28;20026;-82
2023/07/07 05:25:50;;;;;;;3.72;2.25;;;15.40;99.90;;;;;;5021269;28;20030;-82
2023/07/07 05:28:16;;;;;;;2.80;1.80;;;15.50;99.90;;;;;;5012063;28;20437;-82
2023/07/07 05:30:42;;;;;;;3.25;2.00;;;15.70;99.90;;;;;;5028360;28;20041;-82
2023/07/07 05:33:08;;;;;;;5.50;2.20;;;15.80;99.90;;;;;;5012922;28;20053;-82
2023/07/07 05:35:53;;;;;;;4.68;1.60;;;16.00;99.90;;;;;;5030463;28;20479;-82
2023/07/07 05:38:24;;;;;;;3.42;2.00;;;16.10;99.90;;;;;;5011090;28;20034;-81
2023/07/07 05:40:50;;;;;;;3.70;1.55;;;16.30;99.90;;;;;;5024964;28;20102;-81
2023/07/07 05:43:17;;;;;;;2.83;1.58;;;16.40;99.90;;;;;;5008314;28;20033;-83
2023/07/07 05:45:44;;;;;;;3.28;2.10;;;16.60;99.90;;;;;;5027217;28;20065;-82
2023/07/07 05:48:11;;;;;;;4.32;1.52;;;16.80;99.90;;;;;;5023589;28;20563;-83
2023/07/07 05:50:38;;;;;;;4.03;1.48;;;17.00;99.90;;;;;;5024555;28;20029;-82
2023/07/07 05:53:04;;;;;;;3.60;1.83;;;17.20;99.90;;;;;;5029099;28;20041;-82
2023/07/07 05:55:33;;;;;;;3.60;1.23;;;17.30;99.90;;;;;;5025590;28;20036;-83
2023/07/07 05:58:00;;;;;;;2.17;0.95;;;17.50;99.90;;;;;;5027330;28;20024;-83
2023/07/07 06:00:27;;;;;;;3.42;1.13;;;17.70;99.90;;;;;;5028470;28;20079;-83
2023/07/07 06:02:54;;;;;;;3.15;1.00;;;17.80;99.90;;;;;;5027054;28;20518;-83
2023/07/07 06:05:19;;;;;;;2.65;1.25;;;18.00;99.90;;;;;;5023779;28;20022;-82
2023/07/07 06:07:46;;;;;;;4.18;1.25;;;18.20;99.90;;;;;;5027537;28;20075;-83
2023/07/07 06:10:12;;;;;;;2.95;1.33;;;18.50;99.90;;;;;;5011525;28;20061;-83
2023/07/07 06:12:38;;;;;;;2.83;1.48;;;18.70;99.90;;;;;;5027932;28;20113;-84
2023/07/07 06:15:05;;;;;;;2.10;1.05;;;18.90;99.90;;;;;;5007469;28;20133;-83
2023/07/07 06:17:31;;;;;;;3.88;1.30;;;19.10;99.90;;;;;;5022089;28;20034;-82
2023/07/07 06:19:56;;;;;;;3.38;1.15;;;19.20;99.90;;;;;;5026139;28;20076;-83
2023/07/07 06:22:22;;;;;;;4.13;1.50;;;19.30;99.90;;;;;;5009934;28;20025;-82
2023/07/07 06:24:48;;;;;;;3.33;1.33;;;19.40;99.90;;;;;;5025434;28;20509;-82
2023/07/07 06:27:14;;;;;;;4.07;1.27;;;19.50;99.90;;;;;;5024658;28;20029;-83
2023/07/07 06:29:40;;;;;;;3.88;1.02;;;19.70;99.90;;;;;;5027914;28;20033;-83
2023/07/07 06:32:06;;;;;;;2.80;1.00;;;19.80;99.90;;;;;;5028371;28;20032;-82
2023/07/07 06:34:32;;;;;;;3.92;1.45;;;20.00;99.90;;;;;;5017971;28;20050;-82
2023/07/07 06:36:59;;;;;;;4.63;1.00;;;20.10;99.90;;;;;;5021367;28;20061;-82
2023/07/07 06:39:27;;;;;;;2.78;1.08;;;20.20;99.90;;;;;;5024688;28;20029;-83
2023/07/07 06:41:53;;;;;;;2.92;1.00;;;20.40;99.90;;;;;;5023586;28;20352;-82
2023/07/07 06:44:22;;;;;;;4.97;0.90;;;20.50;99.90;;;;;;5023412;28;20033;-83
2023/07/07 06:46:48;;;;;;;2.85;0.95;;;20.60;99.90;;;;;;5024124;28;20503;-83
2023/07/07 06:49:13;;;;;;;2.55;1.00;;;20.80;99.90;;;;;;5020128;28;20065;-82
2023/07/07 06:51:39;;;;;;;2.63;0.60;;;21.10;99.90;;;;;;5005763;28;20386;-83
2023/07/07 06:54:05;;;;;;;3.40;0.90;;;21.30;99.90;;;;;;5016417;28;20060;-83
2023/07/07 06:56:31;;;;;;;3.40;0.90;;;21.50;99.90;;;;;;5019249;28;20095;-82
2023/07/07 06:58:56;;;;;;;3.58;0.70;;;21.60;99.90;;;;;;5020553;28;20022;-83
2023/07/07 07:01:22;;;;;;;2.42;1.00;;;21.70;99.90;;;;;;5021089;28;20348;-81
2023/07/07 07:03:48;;;;;;;2.53;0.80;;;21.70;99.90;;;;;;5016074;28;20033;-81
2023/07/07 07:06:14;;;;;;;4.55;0.85;;;21.90;99.90;;;;;;5016418;28;20026;-82
2023/07/07 07:08:40;;;;;;;5.90;1.20;;;22.20;99.90;;;;;;5015851;28;20041;-83
2023/07/07 07:11:06;;;;;;;3.22;1.30;;;22.40;99.90;;;;;;5013713;28;20052;-82
2023/07/07 07:13:32;;;;;;;3.05;1.35;;;22.60;99.90;;;;;;5014209;28;20052;-82
2023/07/07 07:15:58;;;;;;;3.95;1.65;;;22.60;99.90;;;;;;5018485;28;20037;-82
2023/07/07 07:18:24;;;;;;;4.30;1.23;;;22.80;99.90;;;;;;5017441;28;20442;-81
2023/07/07 07:20:51;;;;;;;5.15;1.60;;;22.90;99.90;;;;;;4999543;28;20022;-82
2023/07/07 07:23:17;;;;;;;4.22;1.38;;;22.90;99.90;;;;;;5014583;28;20403;-82
2023/07/07 07:25:44;;;;;;;7.00;2.05;;;23.10;99.90;;;;;;5016652;28;20040;-83
2023/07/07 07:28:14;;;;;;;5.45;1.63;;;23.30;99.90;;;;;;5004573;28;20056;-83
2023/07/07 07:30:41;;;;;;;3.55;1.30;;;23.50;99.90;;;;;;5018168;28;20116;-82
2023/07/07 07:33:12;;;;;;;5.35;1.30;;;23.20;99.90;;;;;;5000420;28;20509;-83
2023/07/07 07:35:38;;;;;;;2.72;0.70;;;23.50;99.90;;;;;;5018329;28;20406;-83
2023/07/07 07:38:04;;;;;;;2.90;0.70;;;23.60;99.90;;;;;;5001168;28;20037;-83
2023/07/07 07:40:30;;;;;;;3.13;0.57;;;23.80;99.90;;;;;;5019895;28;20363;-83
2023/07/07 07:42:56;;;;;;;3.30;0.50;;;23.90;99.90;;;;;;5023812;28;20572;-83
2023/07/07 07:45:22;;;;;;;2.58;0.65;;;23.90;99.90;;;;;;5015479;28;20037;-83
2023/07/07 07:47:50;;;;;;;2.28;0.52;;;23.90;99.90;;;;;;5017760;28;20394;-83
2023/07/07 07:50:16;;;;;;;3.60;0.80;;;24.20;99.90;;;;;;5017024;28;20374;-84
2023/07/07 07:52:42;;;;;;;2.38;0.60;;;24.30;99.90;;;;;;5010697;28;20021;-83
2023/07/07 07:55:08;;;;;;;2.00;0.50;;;24.30;99.90;;;;;;5002791;28;20034;-83
2023/07/07 07:57:34;;;;;;;1.83;0.50;;;24.50;99.90;;;;;;5012029;28;20345;-84
2023/07/07 08:00:00;;;;;;;3.50;0.65;;;24.60;99.90;;;;;;5012529;28;20029;-83
2023/07/07 08:02:25;;;;;;;1.83;0.60;;;24.30;99.90;;;;;;5009731;28;20132;-84
2023/07/07 08:04:51;;;;;;;1.45;0.40;;;24.50;99.90;;;;;;5014868;28;20075;-84
2023/07/07 08:07:17;;;;;;;1.15;0.40;;;24.60;99.90;;;;;;5019339;28;20475;-84
2023/07/07 08:09:42;;;;;;;1.70;0.60;;;24.80;99.90;;;;;;5017585;28;20040;-84
2023/07/07 08:12:09;;;;;;;2.45;0.40;;;24.80;99.90;;;;;;5020314;28;20497;-84
2023/07/07 08:14:36;;;;;;;1.55;0.40;;;25.10;99.90;;;;;;5014586;28;20026;-83
2023/07/07 08:17:08;;;;;;;1.50;0.40;;;25.10;99.90;;;;;;5021361;28;20064;-83
2023/07/07 08:19:36;;;;;;;1.27;0.30;;;25.20;99.90;;;;;;5014823;28;20091;-84
2023/07/07 08:22:07;;;;;;;1.45;0.40;;;25.50;99.90;;;;;;5013379;28;20179;-84
2023/07/07 08:24:37;;;;;;;1.65;0.30;;;25.60;99.90;;;;;;5018084;28;20026;-84
2023/07/07 08:27:03;;;;;;;2.00;0.40;;;25.80;99.90;;;;;;5000915;28;20359;-84
2023/07/07 08:29:29;;;;;;;1.60;0.30;;;25.60;99.90;;;;;;5019127;28;20073;-84
2023/07/07 08:31:54;;;;;;;1.33;0.30;;;25.70;99.90;;;;;;5013835;28;20057;-83
2023/07/07 08:34:20;;;;;;;1.45;0.30;;;25.70;99.90;;;;;;5021838;28;20026;-84
2023/07/07 08:36:47;;;;;;;2.63;0.40;;;26.00;99.90;;;;;;5009485;28;20139;-85
2023/07/07 08:39:17;;;;;;;1.63;0.30;;;26.00;99.90;;;;;;5014353;28;20026;-83
2023/07/07 08:41:50;;;;;;;1.10;0.28;;;26.10;99.90;;;;;;5000421;28;20475;-85
2023/07/07 08:44:20;;;;;;;2.08;0.30;;;26.20;99.90;;;;;;5011473;28;20088;-84
2023/07/07 08:47:15;;;;;;;1.83;0.30;;;26.30;99.90;;;;;;5020675;28;20036;-84
2023/07/07 08:49:58;;;;;;;1.35;0.30;;;26.30;99.90;;;;;;4992955;28;20560;-84
2023/07/07 08:52:52;;;;;;;1.98;0.38;;;26.40;99.90;;;;;;5015176;28;20022;-84
2023/07/07 08:55:33;;;;;;;2.50;0.28;;;26.30;99.90;;;;;;4997545;28;20052;-84
2023/07/07 08:58:22;;;;;;;1.23;0.30;;;26.60;99.90;;;;;;4997247;28;20037;-85
2023/07/07 09:01:11;;;;;;;0.82;0.30;;;26.70;99.90;;;;;;5010305;28;20080;-85
2023/07/07 09:04:10;;;;;;;1.20;0.30;;;26.80;99.90;;;;;;5012871;28;20549;-85
2023/07/07 09:06:49;;;;;;;1.77;0.40;;;27.00;99.90;;;;;;5013984;28;20283;-84
2023/07/07 09:09:23;;;;;;;1.42;0.30;;;26.70;99.90;;;;;;5011593;28;20116;-84
2023/07/07 09:12:00;;;;;;;1.25;0.20;;;26.60;99.90;;;;;;5015807;28;20125;-85
2023/07/07 09:14:27;;;;;;;3.30;0.40;;;26.70;99.90;;;;;;4995699;28;20347;-84
2023/07/07 09:16:57;;;;;;;1.30;0.30;;;26.80;99.90;;;;;;4999100;28;20379;-85
2023/07/07 09:19:31;;;;;;;2.40;0.30;;;26.70;99.90;;;;;;4997966;28;20040;-84
2023/07/07 09:22:03;;;;;;;1.17;0.28;;;27.10;99.90;;;;;;4999732;28;20018;-85
2023/07/07 09:25:05;;;;;;;1.38;0.22;;;26.70;99.90;;;;;;5011894;28;20082;-84
2023/07/07 09:27:39;;;;;;;0.75;0.20;;;27.50;99.90;;;;;;4949957;28;20254;-84
2023/07/07 09:30:22;;;;;;;0.90;0.30;;;27.70;99.90;;;;;;4977720;28;20054;-85
2023/07/07 09:32:48;;;;;;;0.98;0.30;;;27.90;99.70;;;;;;4960796;28;20022;-85
2023/07/07 09:35:14;;;;;;;0.90;0.30;;;27.30;99.90;;;;;;4966927;28;20049;-84
2023/07/07 09:38:07;;;;;;;0.88;0.20;;;27.60;99.60;;;;;;4976504;28;20046;-84
2023/07/07 09:40:41;;;;;;;0.80;0.30;;;27.50;99.10;;;;;;4980405;28;20026;-84
2023/07/07 09:43:26;;;;;;;1.23;0.22;;;27.60;99.90;;;;;;4981077;28;20131;-85
2023/07/07 09:46:20;;;;;;;0.55;0.13;;;27.20;99.50;;;;;;4980455;28;20034;-85
2023/07/07 09:49:04;;;;;;;0.85;0.20;;;27.60;99.40;;;;;;4959976;28;20571;-83
2023/07/07 09:51:54;;;;;;;0.80;0.20;;;28.10;98.90;;;;;;4958945;28;20108;-84
2023/07/07 09:54:22;;;;;;;0.73;0.20;;;28.10;98.10;;;;;;4961875;28;20027;-84
2023/07/07 09:56:59;;;;;;;1.10;0.22;;;28.00;99.30;;;;;;4962331;28;20046;-85
2023/07/07 09:59:30;;;;;;;1.15;0.30;;;28.00;99.50;;;;;;4948061;28;20045;-85
2023/07/07 10:01:57;;;;;;;1.27;0.30;;;27.70;99.90;;;;;;4982068;28;20092;-84
2023/07/07 10:04:24;;;;;;;0.98;0.20;;;28.00;98.00;;;;;;5011165;28;20173;-85
2023/07/07 10:07:00;;;;;;;0.90;0.20;;;28.00;99.20;;;;;;5019383;28;20113;-84
2023/07/07 10:09:28;;;;;;;0.55;0.20;;;28.10;98.10;;;;;;5006764;28;20498;-83
2023/07/07 10:11:55;;;;;;;1.02;0.20;;;27.80;98.30;;;;;;4999069;28;20018;-84
2023/07/07 10:14:21;;;;;;;0.52;0.10;;;27.90;97.90;;;;;;5018309;28;20034;-85
2023/07/07 10:17:09;;;;;;;2.15;0.20;;;28.10;99.10;;;;;;5002907;28;20467;-84
2023/07/07 10:19:44;;;;;;;1.25;0.20;;;28.30;99.10;;;;;;5018752;28;20117;-85
2023/07/07 10:22:12;;;;;;;0.47;0.13;;;28.60;96.40;;;;;;4997148;28;20037;-83
2023/07/07 10:24:38;;;;;;;1.10;0.30;;;28.60;98.40;;;;;;5017409;28;20030;-85
2023/07/07 10:27:04;;;;;;;1.90;0.50;;;28.00;97.40;;;;;;5007010;28;20091;-86
2023/07/07 10:29:39;;;;;;;1.17;0.20;;;28.10;97.50;;;;;;5003840;28;20042;-84
2023/07/07 10:32:06;;;;;;;0.95;0.20;;;28.70;97.20;;;;;;5018928;28;20034;-85
2023/07/07 10:34:40;;;;;;;0.47;0.10;;;28.50;96.20;;;;;;5014045;28;20446;-84
2023/07/07 10:37:18;;;;;;;0.60;0.20;;;28.30;96.50;;;;;;5003025;28;20030;-83
2023/07/07 10:39:52;;;;;;;0.65;0.20;;;28.70;98.20;;;;;;5002868;28;20095;-85
2023/07/07 10:42:20;;;;;;;1.27;0.20;;;29.30;96.90;;;;;;5022030;28;20041;-85
2023/07/07 10:44:46;;;;;;;1.17;0.20;;;29.00;97.40;;;;;;4999377;28;20386;-85
2023/07/07 10:47:13;;;;;;;0.88;0.30;;;29.20;97.20;;;;;;5013842;28;20109;-85
2023/07/07 10:49:39;;;;;;;0.95;0.20;;;28.70;97.50;;;;;;5006264;28;20491;-83
2023/07/07 10:52:32;;;;;;;0.50;0.20;;;28.50;95.90;;;;;;5017645;28;20084;-85
2023/07/07 10:55:07;;;;;;;1.02;0.30;;;28.50;97.60;;;;;;5002625;28;20026;-84
2023/07/07 10:57:47;;;;;;;1.13;0.30;;;28.40;96.70;;;;;;5016899;28;20084;-84
2023/07/07 11:00:15;;;;;;;0.80;0.20;;;28.50;96.30;;;;;;5014417;28;20092;-84
2023/07/07 11:02:50;;;;;;;0.68;0.20;;;28.70;96.90;;;;;;5002114;28;20041;-84
2023/07/07 11:05:29;;;;;;;0.57;0.20;;;29.00;98.10;;;;;;5016176;28;20582;-85
2023/07/07 11:08:01;;;;;;;1.35;0.30;;;29.20;97.00;;;;;;5015010;28;20158;-84
2023/07/07 11:10:38;;;;;;;1.23;0.30;;;28.20;97.00;;;;;;5017214;28;20769;-85
2023/07/07 11:13:17;;;;;;;0.77;0.30;;;28.40;96.10;;;;;;5015632;28;20030;-84
2023/07/07 11:15:50;;;;;;;0.70;0.20;;;28.40;98.00;;;;;;5016847;28;20044;-85
2023/07/07 11:18:26;;;;;;;2.40;0.20;;;28.80;97.10;;;;;;5030935;28;20052;-84
2023/07/07 11:20:52;;;;;;;3.40;0.28;;;29.20;97.40;;;;;;4997987;28;20033;-84
2023/07/07 11:23:44;;;;;;;1.02;0.30;;;29.40;96.80;;;;;;5014864;28;20037;-83
2023/07/07 11:26:35;;;;;;;0.77;0.20;;;29.10;97.00;;;;;;5001215;28;20231;-83
2023/07/07 11:29:04;;;;;;;0.93;0.30;;;29.60;96.90;;;;;;5016312;28;20037;-84
2023/07/07 11:31:43;;;;;;;2.00;0.30;;;29.30;96.40;;;;;;5015742;28;20033;-84
2023/07/07 11:34:32;;;;;;;;;;;29.20;95.80;;;;;;5014214;28;20116;-84
2023/07/07 11:37:14;;;;;;;0.60;0.20;;;28.90;95.50;;;;;;4932707;28;20413;-85
2023/07/07 11:40:05;;;;;;;0.60;0.20;;;29.10;95.30;;;;;;4963279;28;20134;-84
2023/07/07 11:42:52;;;;;;;1.10;0.20;;;29.40;96.30;;;;;;4943514;28;20515;-84
2023/07/07 11:45:31;;;;;;;0.70;0.30;;;29.10;95.60;;;;;;4947784;28;20641;-84
2023/07/07 11:48:12;;;;;;;1.25;0.30;;;28.70;98.20;;;;;;4931637;28;20114;-85
2023/07/07 11:50:41;;;;;;;0.80;0.20;;;29.10;95.80;;;;;;4964092;28;20039;-84
2023/07/07 11:53:22;;;;;;;0.88;0.22;;;29.30;96.30;;;;;;4948265;28;20476;-85
2023/07/07 11:55:57;;;;;;;0.93;0.20;;;29.30;95.00;;;;;;4946478;28;20535;-85
2023/07/07 11:58:36;;;;;;;1.00;0.30;;;29.10;94.80;;;;;;4947483;28;20030;-84
2023/07/07 12:01:02;;;;;;;1.40;0.30;;;28.90;95.10;;;;;;4963716;28;20082;-84
2023/07/07 12:03:43;;;;;;;0.93;0.30;;;29.00;95.40;;;;;;4948381;28;20030;-85
2023/07/07 12:06:32;;;;;;;0.60;0.20;;;29.00;95.80;;;;;;4962571;28;20153;-84
2023/07/07 12:09:20;;;;;;;0.60;0.20;;;29.30;96.70;;;;;;4959182;28;20050;-83
2023/07/07 12:11:53;;;;;;;0.47;0.20;;;29.40;95.60;;;;;;4938151;28;20200;-84
2023/07/07 12:14:44;;;;;;;0.82;0.20;;;29.40;96.60;;;;;;4987791;28;20064;-84
2023/07/07 12:17:18;;;;;;;1.92;0.30;;;29.70;96.90;;;;;;5010061;28;20025;-84
2023/07/07 12:19:58;;;;;;;1.30;0.30;;;30.00;95.30;;;;;;5000102;28;20052;-84
2023/07/07 12:22:29;;;;;;;1.48;0.30;;;29.50;95.60;;;;;;4996585;28;20482;-85
2023/07/07 12:24:59;;;;;;;1.10;0.28;;;29.40;94.90;;;;;;5014325;28;20029;-84
2023/07/07 12:27:41;;;;;;;1.48;0.20;;;29.20;94.90;;;;;;5015996;28;20087;-84
2023/07/07 12:30:14;;;;;;;1.85;0.30;;;29.20;94.20;;;;;;5015805;28;20045;-85
2023/07/07 12:32:41;;;;;;;0.93;0.30;;;29.10;94.30;;;;;;5015025;28;20030;-84
2023/07/07 12:35:12;;;;;;;1.20;0.30;;;29.10;95.30;;;;;;5012579;28;20531;-84
2023/07/07 12:37:38;;;;;;;1.55;0.25;;;29.40;95.50;;;;;;5000168;28;20026;-84
2023/07/07 12:40:11;;;;;;;0.70;0.20;;;29.50;93.60;;;;;;5004912;28;20497;-84
2023/07/07 12:42:42;;;;;;;0.82;0.30;;;29.60;94.10;;;;;;5000649;28;20029;-86
2023/07/07 12:45:30;;;;;;;1.20;0.20;;;29.40;94.40;;;;;;5022476;28;20204;-85
2023/07/07 12:48:06;;;;;;;0.83;0.20;;;29.70;95.20;;;;;;5019836;28;20021;-85
2023/07/07 12:50:42;;;;;;;2.20;0.25;;;29.60;93.90;;;;;;5014750;28;20798;-85
2023/07/07 12:53:31;;;;;;;0.93;0.30;;;28.70;95.00;;;;;;5017751;28;20135;-85
2023/07/07 12:56:06;;;;;;;2.92;0.57;;;29.40;94.80;;;;;;5017556;28;20598;-86
2023/07/07 12:58:43;;;;;;;0.90;0.20;;;29.40;95.00;;;;;;5011589;28;20111;-85
2023/07/07 13:01:28;;;;;;;2.60;0.30;;;29.10;93.70;;;;;;4997632;28;20050;-84
2023/07/07 13:04:02;;;;;;;1.52;0.30;;;28.70;93.70;;;;;;5010446;28;20183;-85
2023/07/07 13:06:34;;;;;;;0.68;0.20;;;29.00;94.50;;;;;;5012614;28;20478;-84
2023/07/07 13:09:12;;;;;;;0.70;0.20;;;29.30;95.80;;;;;;5012563;28;20474;-85